sensor_id;sensor_type;location;lat;lon;timestamp;pressure;altitude;pressure_sealevel;temperature;humidity
8101;BME280;4093;53.470;9.832;2023-03-15T00:02:10;100623.38;;;5.08;81.30
8101;BME280;4093;53.470;9.832;2023-03-15T00:04:39;100652.47;;;5.35;80.54
8101;BME280;4093;53.470;9.832;2023-03-15T00:07:07;100652.53;;;5.56;80.27
8101;BME280;4093;53.470;9.832;2023-03-15T00:09:35;100647.41;;;5.69;79.39
8101;BME280;4093;53.470;9.832;2023-03-15T00:12:04;100644.72;;;5.03;81.86
8101;BME280;4093;53.470;9.832;2023-03-15T00:14:31;100645.59;;;5.08;82.16
8101;BME280;4093;53.470;9.832;2023-03-15T00:16:59;100654.19;;;5.34;81.80
8101;BME280;4093;53.470;9.832;2023-03-15T00:19:27;100654.13;;;5.16;81.36
8101;BME280;4093;53.470;9.832;2023-03-15T00:21:56;100650.69;;;5.02;82.31
8101;BME280;4093;53.470;9.832;2023-03-15T00:24:27;100640.41;;;4.94;82.22
8101;BME280;4093;53.470;9.832;2023-03-15T00:26:55;100630.94;;;4.79;81.35
8101;BME280;4093;53.470;9.832;2023-03-15T00:29:23;100611.25;;;4.61;82.09
8101;BME280;4093;53.470;9.832;2023-03-15T00:31:51;100653.06;;;4.62;83.42
8101;BME280;4093;53.470;9.832;2023-03-15T00:34:19;100643.38;;;4.16;85.52
8101;BME280;4093;53.470;9.832;2023-03-15T00:36:50;100626.28;;;4.08;85.86
8101;BME280;4093;53.470;9.832;2023-03-15T00:39:22;100657.91;;;4.19;86.26
8101;BME280;4093;53.470;9.832;2023-03-15T00:41:52;100611.34;;;3.52;87.97
8101;BME280;4093;53.470;9.832;2023-03-15T00:44:22;100675.94;;;4.33;86.40
8101;BME280;4093;53.470;9.832;2023-03-15T00:46:50;100668.06;;;4.07;87.15
8101;BME280;4093;53.470;9.832;2023-03-15T00:49:23;100683.38;;;4.04;88.22
8101;BME280;4093;53.470;9.832;2023-03-15T00:51:54;100686.75;;;4.00;88.16
8101;BME280;4093;53.470;9.832;2023-03-15T00:54:24;100689.47;;;4.20;88.27
8101;BME280;4093;53.470;9.832;2023-03-15T00:56:54;100659.38;;;3.86;88.74
8101;BME280;4093;53.470;9.832;2023-03-15T00:59:22;100693.47;;;3.88;89.15
8101;BME280;4093;53.470;9.832;2023-03-15T01:01:50;100702.09;;;4.00;88.75
8101;BME280;4093;53.470;9.832;2023-03-15T01:04:18;100715.97;;;4.23;88.78
8101;BME280;4093;53.470;9.832;2023-03-15T01:06:46;100716.75;;;4.17;88.59
8101;BME280;4093;53.470;9.832;2023-03-15T01:09:14;100724.47;;;4.22;88.69
8101;BME280;4093;53.470;9.832;2023-03-15T01:11:45;100684.22;;;4.03;87.96
8101;BME280;4093;53.470;9.832;2023-03-15T01:14:14;100718.84;;;4.75;85.80
8101;BME280;4093;53.470;9.832;2023-03-15T01:16:45;100717.81;;;4.47;87.46
8101;BME280;4093;53.470;9.832;2023-03-15T01:19:14;100722.13;;;4.54;86.63
8101;BME280;4093;53.470;9.832;2023-03-15T01:21:42;100719.53;;;4.47;86.43
8101;BME280;4093;53.470;9.832;2023-03-15T01:24:13;100721.38;;;4.69;85.80
8101;BME280;4093;53.470;9.832;2023-03-15T01:26:44;100704.06;;;4.31;87.76
8101;BME280;4093;53.470;9.832;2023-03-15T01:29:12;100734.03;;;4.48;87.88
8101;BME280;4093;53.470;9.832;2023-03-15T01:31:41;100734.19;;;4.68;86.39
8101;BME280;4093;53.470;9.832;2023-03-15T01:34:10;100736.66;;;4.57;87.69
8101;BME280;4093;53.470;9.832;2023-03-15T01:36:37;100717.91;;;4.55;86.76
8101;BME280;4093;53.470;9.832;2023-03-15T01:39:05;100748.81;;;4.92;86.69
8101;BME280;4093;53.470;9.832;2023-03-15T01:41:35;100740.38;;;5.02;86.57
8101;BME280;4093;53.470;9.832;2023-03-15T01:44:11;100719.78;;;4.88;86.28
8101;BME280;4093;53.470;9.832;2023-03-15T01:46:40;100750.56;;;4.97;86.59
8101;BME280;4093;53.470;9.832;2023-03-15T01:49:11;100754.09;;;5.16;85.86
8101;BME280;4093;53.470;9.832;2023-03-15T01:51:43;100744.66;;;5.09;85.78
8101;BME280;4093;53.470;9.832;2023-03-15T01:54:17;100731.63;;;4.68;87.67
8101;BME280;4093;53.470;9.832;2023-03-15T01:56:56;100735.09;;;4.74;86.77
8101;BME280;4093;53.470;9.832;2023-03-15T01:59:31;100766.03;;;5.08;86.11
8101;BME280;4093;53.470;9.832;2023-03-15T02:02:00;100767.81;;;5.24;85.54
8101;BME280;4093;53.470;9.832;2023-03-15T02:04:33;100757.56;;;5.27;85.41
8101;BME280;4093;53.470;9.832;2023-03-15T02:07:02;100753.19;;;5.05;85.72
8101;BME280;4093;53.470;9.832;2023-03-15T02:09:34;100743.53;;;4.58;86.82
8101;BME280;4093;53.470;9.832;2023-03-15T02:12:04;100758.91;;;4.61;87.71
8101;BME280;4093;53.470;9.832;2023-03-15T02:14:34;100769.34;;;4.90;86.91
8101;BME280;4093;53.470;9.832;2023-03-15T02:17:03;100776.25;;;5.06;86.18
8101;BME280;4093;53.470;9.832;2023-03-15T02:19:41;100771.06;;;4.93;86.68
8101;BME280;4093;53.470;9.832;2023-03-15T02:22:24;100751.38;;;4.92;85.49
8101;BME280;4093;53.470;9.832;2023-03-15T02:24:58;100755.59;;;4.77;86.86
8101;BME280;4093;53.470;9.832;2023-03-15T02:27:32;100736.56;;;4.45;87.18
8101;BME280;4093;53.470;9.832;2023-03-15T02:30:03;100770.28;;;5.06;87.29
8101;BME280;4093;53.470;9.832;2023-03-15T02:32:32;100776.09;;;4.82;87.05
8101;BME280;4093;53.470;9.832;2023-03-15T02:35:01;100787.28;;;4.95;87.29
8101;BME280;4093;53.470;9.832;2023-03-15T02:37:31;100758.09;;;4.70;87.13
8101;BME280;4093;53.470;9.832;2023-03-15T02:40:01;100788.13;;;4.91;87.83
8101;BME280;4093;53.470;9.832;2023-03-15T02:42:32;100778.81;;;5.02;86.52
8101;BME280;4093;53.470;9.832;2023-03-15T02:45:00;100793.28;;;4.97;87.26
8101;BME280;4093;53.470;9.832;2023-03-15T02:47:31;100790.44;;;4.57;89.13
8101;BME280;4093;53.470;9.832;2023-03-15T02:50:00;100812.75;;;4.72;88.56
8101;BME280;4093;53.470;9.832;2023-03-15T02:52:28;100764.84;;;4.55;87.56
8101;BME280;4093;53.470;9.832;2023-03-15T02:55:00;100814.59;;;4.90;88.27
8101;BME280;4093;53.470;9.832;2023-03-15T02:57:30;100782.81;;;4.66;87.91
8101;BME280;4093;53.470;9.832;2023-03-15T03:00:00;100782.97;;;4.87;87.00
8101;BME280;4093;53.470;9.832;2023-03-15T03:02:41;100822.50;;;5.23;87.14
8101;BME280;4093;53.470;9.832;2023-03-15T03:05:13;100813.84;;;5.09;86.62
8101;BME280;4093;53.470;9.832;2023-03-15T03:07:42;100808.59;;;4.91;86.80
8101;BME280;4093;53.470;9.832;2023-03-15T03:10:14;100823.03;;;4.78;88.00
8101;BME280;4093;53.470;9.832;2023-03-15T03:12:43;100834.31;;;5.07;86.77
8101;BME280;4093;53.470;9.832;2023-03-15T03:15:14;100842.03;;;5.10;86.88
8101;BME280;4093;53.470;9.832;2023-03-15T03:17:43;100837.50;;;4.73;88.45
8101;BME280;4093;53.470;9.832;2023-03-15T03:20:13;100833.94;;;4.54;88.19
8101;BME280;4093;53.470;9.832;2023-03-15T03:22:41;100841.97;;;4.95;87.38
8101;BME280;4093;53.470;9.832;2023-03-15T03:25:11;100840.88;;;4.67;88.08
8101;BME280;4093;53.470;9.832;2023-03-15T03:27:39;100854.44;;;4.57;88.34
8101;BME280;4093;53.470;9.832;2023-03-15T03:30:10;100862.13;;;4.55;88.68
8101;BME280;4093;53.470;9.832;2023-03-15T03:32:40;100857.00;;;4.57;88.38
8101;BME280;4093;53.470;9.832;2023-03-15T03:35:08;100833.06;;;4.49;88.17
8101;BME280;4093;53.470;9.832;2023-03-15T03:37:36;100852.72;;;4.56;87.78
8101;BME280;4093;53.470;9.832;2023-03-15T03:40:08;100871.00;;;4.96;87.08
8101;BME280;4093;53.470;9.832;2023-03-15T03:42:36;100875.41;;;5.18;85.55
8101;BME280;4093;53.470;9.832;2023-03-15T03:45:05;100868.34;;;4.83;86.55
8101;BME280;4093;53.470;9.832;2023-03-15T03:47:36;100894.13;;;5.05;85.69
8101;BME280;4093;53.470;9.832;2023-03-15T03:50:08;100907.03;;;5.22;85.74
8101;BME280;4093;53.470;9.832;2023-03-15T03:52:41;100905.38;;;5.27;84.92
8101;BME280;4093;53.470;9.832;2023-03-15T03:55:10;100914.84;;;5.42;84.07
8101;BME280;4093;53.470;9.832;2023-03-15T03:57:40;100871.00;;;4.96;84.75
8101;BME280;4093;53.470;9.832;2023-03-15T04:00:12;100907.75;;;5.01;85.06
8101;BME280;4093;53.470;9.832;2023-03-15T04:02:41;100913.81;;;5.12;85.61
8101;BME280;4093;53.470;9.832;2023-03-15T04:05:11;100897.50;;;5.01;85.23
8101;BME280;4093;53.470;9.832;2023-03-15T04:07:39;100921.44;;;5.03;85.79
8101;BME280;4093;53.470;9.832;2023-03-15T04:10:09;100933.38;;;5.04;85.81
8101;BME280;4093;53.470;9.832;2023-03-15T04:12:41;100945.44;;;5.14;85.63
8101;BME280;4093;53.470;9.832;2023-03-15T04:15:10;100945.41;;;5.11;85.78
8101;BME280;4093;53.470;9.832;2023-03-15T04:17:38;100950.69;;;5.31;85.59
8101;BME280;4093;53.470;9.832;2023-03-15T04:20:09;100940.47;;;5.36;85.38
8101;BME280;4093;53.470;9.832;2023-03-15T04:22:41;100942.97;;;5.28;85.18
8101;BME280;4093;53.470;9.832;2023-03-15T04:25:15;100952.47;;;5.41;85.08
8101;BME280;4093;53.470;9.832;2023-03-15T04:27:47;100944.69;;;5.27;84.97
8101;BME280;4093;53.470;9.832;2023-03-15T04:30:25;100945.41;;;5.11;85.79
8101;BME280;4093;53.470;9.832;2023-03-15T04:32:56;100957.59;;;5.40;84.42
8101;BME280;4093;53.470;9.832;2023-03-15T04:35:31;100955.84;;;5.39;83.58
8101;BME280;4093;53.470;9.832;2023-03-15T04:38:04;100946.34;;;5.21;84.00
8101;BME280;4093;53.470;9.832;2023-03-15T04:40:33;100960.72;;;5.02;85.41
8101;BME280;4093;53.470;9.832;2023-03-15T04:43:03;100959.84;;;5.04;85.38
8101;BME280;4093;53.470;9.832;2023-03-15T04:45:32;100964.84;;;4.86;86.21
8101;BME280;4093;53.470;9.832;2023-03-15T04:48:01;100971.63;;;4.82;86.60
8101;BME280;4093;53.470;9.832;2023-03-15T04:50:30;100965.34;;;4.51;88.39
8101;BME280;4093;53.470;9.832;2023-03-15T04:53:01;100978.28;;;4.65;87.68
8101;BME280;4093;53.470;9.832;2023-03-15T04:55:31;100980.06;;;4.72;87.07
8101;BME280;4093;53.470;9.832;2023-03-15T04:57:59;100971.41;;;4.59;86.92
8101;BME280;4093;53.470;9.832;2023-03-15T05:00:27;100940.44;;;4.38;86.08
8101;BME280;4093;53.470;9.832;2023-03-15T05:02:55;100970.47;;;4.53;85.38
8101;BME280;4093;53.470;9.832;2023-03-15T05:05:23;100987.50;;;4.49;86.84
8101;BME280;4093;53.470;9.832;2023-03-15T05:07:52;100983.25;;;4.50;86.49
8101;BME280;4093;53.470;9.832;2023-03-15T05:10:22;100969.47;;;4.41;86.84
8101;BME280;4093;53.470;9.832;2023-03-15T05:12:56;100989.25;;;4.52;87.46
8101;BME280;4093;53.470;9.832;2023-03-15T05:15:24;101002.00;;;4.50;87.90
8101;BME280;4093;53.470;9.832;2023-03-15T05:17:52;101014.13;;;4.67;86.69
8101;BME280;4093;53.470;9.832;2023-03-15T05:20:22;101003.91;;;3.97;88.53
8101;BME280;4093;53.470;9.832;2023-03-15T05:22:53;101028.19;;;4.28;89.04
8101;BME280;4093;53.470;9.832;2023-03-15T05:25:26;101020.28;;;4.08;89.50
8101;BME280;4093;53.470;9.832;2023-03-15T05:27:57;101046.13;;;4.29;88.44
8101;BME280;4093;53.470;9.832;2023-03-15T05:30:24;101053.88;;;4.35;89.62
8101;BME280;4093;53.470;9.832;2023-03-15T05:32:53;101044.47;;;4.33;88.92
8101;BME280;4093;53.470;9.832;2023-03-15T05:35:21;101059.97;;;4.42;89.01
8101;BME280;4093;53.470;9.832;2023-03-15T05:37:54;101066.13;;;4.58;88.31
8101;BME280;4093;53.470;9.832;2023-03-15T05:40:24;101054.19;;;4.60;87.35
8101;BME280;4093;53.470;9.832;2023-03-15T05:42:56;101058.19;;;4.38;88.80
8101;BME280;4093;53.470;9.832;2023-03-15T05:45:24;101069.41;;;4.48;89.20
8101;BME280;4093;53.470;9.832;2023-03-15T05:47:52;101040.44;;;4.53;88.44
8101;BME280;4093;53.470;9.832;2023-03-15T05:50:22;101061.59;;;4.37;89.11
8101;BME280;4093;53.470;9.832;2023-03-15T05:52:51;101068.63;;;4.52;88.90
8101;BME280;4093;53.470;9.832;2023-03-15T05:55:21;101075.44;;;4.53;88.45
8101;BME280;4093;53.470;9.832;2023-03-15T05:57:49;101072.94;;;4.56;88.08
8101;BME280;4093;53.470;9.832;2023-03-15T06:00:21;101085.19;;;4.16;89.82
8101;BME280;4093;53.470;9.832;2023-03-15T06:02:49;101088.22;;;4.50;88.69
8101;BME280;4093;53.470;9.832;2023-03-15T06:05:17;101100.44;;;4.71;86.93
8101;BME280;4093;53.470;9.832;2023-03-15T06:07:45;101104.78;;;4.78;87.24
8101;BME280;4093;53.470;9.832;2023-03-15T06:10:13;101098.16;;;4.97;87.04
8101;BME280;4093;53.470;9.832;2023-03-15T06:12:41;101104.16;;;4.97;86.20
8101;BME280;4093;53.470;9.832;2023-03-15T06:15:10;101124.75;;;5.05;86.18
8101;BME280;4093;53.470;9.832;2023-03-15T06:17:43;101118.94;;;5.21;84.34
8101;BME280;4093;53.470;9.832;2023-03-15T06:20:11;101121.56;;;5.27;83.90
8101;BME280;4093;53.470;9.832;2023-03-15T06:22:43;101118.00;;;5.16;84.55
8101;BME280;4093;53.470;9.832;2023-03-15T06:25:15;101109.56;;;5.25;83.33
8101;BME280;4093;53.470;9.832;2023-03-15T06:27:44;101120.75;;;5.30;84.29
8101;BME280;4093;53.470;9.832;2023-03-15T06:30:13;101124.25;;;5.41;83.62
8101;BME280;4093;53.470;9.832;2023-03-15T06:32:45;101123.34;;;5.34;84.00
8101;BME280;4093;53.470;9.832;2023-03-15T06:35:14;101126.84;;;5.43;82.79
8101;BME280;4093;53.470;9.832;2023-03-15T06:37:43;101106.16;;;5.24;83.80
8101;BME280;4093;53.470;9.832;2023-03-15T06:40:11;101145.16;;;5.83;82.85
8101;BME280;4093;53.470;9.832;2023-03-15T06:42:40;101129.38;;;5.41;83.66
8101;BME280;4093;53.470;9.832;2023-03-15T06:45:08;101138.75;;;6.41;80.43
8101;BME280;4093;53.470;9.832;2023-03-15T06:47:36;101137.81;;;6.25;81.19
8101;BME280;4093;53.470;9.832;2023-03-15T06:50:08;101138.31;;;7.48;78.90
8101;BME280;4093;53.470;9.832;2023-03-15T06:52:36;101118.63;;;9.88;70.93
8101;BME280;4093;53.470;9.832;2023-03-15T06:55:07;101113.44;;;11.40;66.89
8101;BME280;4093;53.470;9.832;2023-03-15T06:57:44;101111.06;;;11.81;61.72
8101;BME280;4093;53.470;9.832;2023-03-15T07:00:14;101103.81;;;13.32;59.85
8101;BME280;4093;53.470;9.832;2023-03-15T07:02:42;101106.78;;;14.54;55.25
8101;BME280;4093;53.470;9.832;2023-03-15T07:05:14;101103.06;;;13.27;57.34
8101;BME280;4093;53.470;9.832;2023-03-15T07:07:43;101102.13;;;13.30;57.41
8101;BME280;4093;53.470;9.832;2023-03-15T07:10:11;101108.41;;;13.19;57.31
8101;BME280;4093;53.470;9.832;2023-03-15T07:12:42;101101.41;;;11.91;59.38
8101;BME280;4093;53.470;9.832;2023-03-15T07:15:10;101109.94;;;10.79;61.89
8101;BME280;4093;53.470;9.832;2023-03-15T07:17:40;101123.69;;;10.01;65.17
8101;BME280;4093;53.470;9.832;2023-03-15T07:20:09;101153.97;;;9.80;64.88
8101;BME280;4093;53.470;9.832;2023-03-15T07:22:40;101182.88;;;8.88;67.26
8101;BME280;4093;53.470;9.832;2023-03-15T07:25:11;101193.09;;;7.15;73.00
8101;BME280;4093;53.470;9.832;2023-03-15T07:27:39;101210.88;;;6.72;76.59
8101;BME280;4093;53.470;9.832;2023-03-15T07:30:09;101220.66;;;6.03;79.52
8101;BME280;4093;53.470;9.832;2023-03-15T07:32:37;101219.00;;;6.10;79.16
8101;BME280;4093;53.470;9.832;2023-03-15T07:35:07;101163.03;;;5.76;79.20
8101;BME280;4093;53.470;9.832;2023-03-15T07:37:41;101196.03;;;6.30;78.19
8101;BME280;4093;53.470;9.832;2023-03-15T07:40:11;101203.13;;;5.62;80.47
8101;BME280;4093;53.470;9.832;2023-03-15T07:42:40;101222.53;;;6.24;78.51
8101;BME280;4093;53.470;9.832;2023-03-15T07:45:10;101222.44;;;6.12;79.03
8101;BME280;4093;53.470;9.832;2023-03-15T07:47:38;101226.72;;;6.11;80.70
8101;BME280;4093;53.470;9.832;2023-03-15T07:50:08;101239.91;;;6.56;79.76
8101;BME280;4093;53.470;9.832;2023-03-15T07:52:43;101239.06;;;6.58;80.13
8101;BME280;4093;53.470;9.832;2023-03-15T07:55:12;101236.97;;;7.56;76.33
8101;BME280;4093;53.470;9.832;2023-03-15T07:57:40;101210.47;;;8.25;73.43
8101;BME280;4093;53.470;9.832;2023-03-15T08:00:10;101223.97;;;9.34;72.15
8101;BME280;4093;53.470;9.832;2023-03-15T08:02:43;101220.66;;;10.45;68.58
8101;BME280;4093;53.470;9.832;2023-03-15T08:05:11;101222.97;;;10.71;67.58
8101;BME280;4093;53.470;9.832;2023-03-15T08:07:40;101207.38;;;10.81;65.33
8101;BME280;4093;53.470;9.832;2023-03-15T08:10:11;101216.28;;;11.27;64.67
8101;BME280;4093;53.470;9.832;2023-03-15T08:12:40;101218.19;;;12.83;60.91
8101;BME280;4093;53.470;9.832;2023-03-15T08:15:10;101182.88;;;13.16;57.50
8101;BME280;4093;53.470;9.832;2023-03-15T08:17:39;101199.06;;;15.36;55.02
8101;BME280;4093;53.470;9.832;2023-03-15T08:20:10;101201.38;;;15.15;53.63
8101;BME280;4093;53.470;9.832;2023-03-15T08:22:43;101156.91;;;15.21;52.53
8101;BME280;4093;53.470;9.832;2023-03-15T08:25:14;101201.31;;;16.79;50.56
8101;BME280;4093;53.470;9.832;2023-03-15T08:27:43;101200.09;;;15.30;51.14
8101;BME280;4093;53.470;9.832;2023-03-15T08:30:13;101208.19;;;12.61;56.08
8101;BME280;4093;53.470;9.832;2023-03-15T08:32:44;101223.13;;;11.32;63.11
8101;BME280;4093;53.470;9.832;2023-03-15T08:35:16;101230.31;;;10.18;65.23
8101;BME280;4093;53.470;9.832;2023-03-15T08:37:45;101232.38;;;10.78;65.21
8101;BME280;4093;53.470;9.832;2023-03-15T08:40:16;101230.06;;;13.39;61.17
8101;BME280;4093;53.470;9.832;2023-03-15T08:42:46;101216.94;;;14.87;56.26
8101;BME280;4093;53.470;9.832;2023-03-15T08:45:14;101212.16;;;15.90;51.11
8101;BME280;4093;53.470;9.832;2023-03-15T08:47:42;101213.09;;;15.88;49.59
8101;BME280;4093;53.470;9.832;2023-03-15T08:50:12;101221.69;;;15.34;52.82
8101;BME280;4093;53.470;9.832;2023-03-15T08:52:40;101216.75;;;15.82;50.73
8101;BME280;4093;53.470;9.832;2023-03-15T08:55:09;101233.13;;;16.65;49.70
8101;BME280;4093;53.470;9.832;2023-03-15T08:57:41;101215.50;;;16.72;47.10
8101;BME280;4093;53.470;9.832;2023-03-15T09:00:11;101219.63;;;17.50;46.67
8101;BME280;4093;53.470;9.832;2023-03-15T09:02:48;101227.53;;;17.70;47.27
8101;BME280;4093;53.470;9.832;2023-03-15T09:05:18;101217.88;;;17.72;45.78
8101;BME280;4093;53.470;9.832;2023-03-15T09:07:47;101218.59;;;17.54;45.97
8101;BME280;4093;53.470;9.832;2023-03-15T09:10:16;101235.53;;;16.47;46.97
8101;BME280;4093;53.470;9.832;2023-03-15T09:12:47;101266.81;;;13.61;53.19
8101;BME280;4093;53.470;9.832;2023-03-15T09:15:15;101281.53;;;12.18;56.98
8101;BME280;4093;53.470;9.832;2023-03-15T09:17:48;101292.78;;;9.35;65.88
8101;BME280;4093;53.470;9.832;2023-03-15T09:20:17;101290.97;;;9.53;67.29
8101;BME280;4093;53.470;9.832;2023-03-15T09:22:52;101301.38;;;9.36;66.58
8101;BME280;4093;53.470;9.832;2023-03-15T09:25:21;101301.50;;;8.91;67.88
8101;BME280;4093;53.470;9.832;2023-03-15T09:27:54;101313.53;;;8.80;67.99
8101;BME280;4093;53.470;9.832;2023-03-15T09:30:22;101315.25;;;8.99;69.44
8101;BME280;4093;53.470;9.832;2023-03-15T09:32:50;101308.38;;;8.74;69.42
8101;BME280;4093;53.470;9.832;2023-03-15T09:35:22;101316.94;;;9.02;68.54
8101;BME280;4093;53.470;9.832;2023-03-15T09:37:51;101315.19;;;9.15;69.62
8101;BME280;4093;53.470;9.832;2023-03-15T09:40:22;101319.50;;;9.14;70.36
8101;BME280;4093;53.470;9.832;2023-03-15T09:43:00;101315.81;;;9.83;68.75
8101;BME280;4093;53.470;9.832;2023-03-15T09:45:42;101314.84;;;10.01;66.99
8101;BME280;4093;53.470;9.832;2023-03-15T09:48:20;101324.63;;;9.17;69.66
8101;BME280;4093;53.470;9.832;2023-03-15T09:50:53;101314.31;;;9.17;70.90
8101;BME280;4093;53.470;9.832;2023-03-15T09:53:27;101322.81;;;9.48;69.95
8101;BME280;4093;53.470;9.832;2023-03-15T09:56:01;101305.75;;;9.11;68.41
8101;BME280;4093;53.470;9.832;2023-03-15T09:58:31;101343.41;;;9.75;67.81
8101;BME280;4093;53.470;9.832;2023-03-15T10:01:04;101338.38;;;9.32;67.85
8101;BME280;4093;53.470;9.832;2023-03-15T10:03:40;101331.34;;;9.73;66.18
8101;BME280;4093;53.470;9.832;2023-03-15T10:06:15;101339.28;;;8.98;67.26
8101;BME280;4093;53.470;9.832;2023-03-15T10:08:56;101357.13;;;7.71;72.40
8101;BME280;4093;53.470;9.832;2023-03-15T10:11:30;101360.31;;;7.29;74.35
8101;BME280;4093;53.470;9.832;2023-03-15T10:14:17;101369.13;;;7.72;75.07
8101;BME280;4093;53.470;9.832;2023-03-15T10:16:50;101354.63;;;7.94;75.01
8101;BME280;4093;53.470;9.832;2023-03-15T10:19:24;101356.25;;;7.72;75.82
8101;BME280;4093;53.470;9.832;2023-03-15T10:22:00;101364.72;;;7.51;77.82
8101;BME280;4093;53.470;9.832;2023-03-15T10:24:34;101378.75;;;8.30;74.30
8101;BME280;4093;53.470;9.832;2023-03-15T10:27:13;101370.25;;;8.54;73.66
8101;BME280;4093;53.470;9.832;2023-03-15T10:29:47;101360.63;;;7.92;74.31
8101;BME280;4093;53.470;9.832;2023-03-15T10:32:19;101371.03;;;8.22;74.93
8101;BME280;4093;53.470;9.832;2023-03-15T10:34:51;101362.91;;;7.32;77.41
8101;BME280;4093;53.470;9.832;2023-03-15T10:37:20;101362.47;;;8.37;75.24
8101;BME280;4093;53.470;9.832;2023-03-15T10:39:53;101345.91;;;7.61;74.97
8101;BME280;4093;53.470;9.832;2023-03-15T10:42:25;101369.38;;;8.41;74.49
8101;BME280;4093;53.470;9.832;2023-03-15T10:44:55;101377.94;;;8.37;72.33
8101;BME280;4093;53.470;9.832;2023-03-15T10:47:24;101382.28;;;8.98;69.81
8101;BME280;4093;53.470;9.832;2023-03-15T10:49:57;101366.78;;;8.41;71.09
8101;BME280;4093;53.470;9.832;2023-03-15T10:52:34;101380.56;;;8.43;72.19
8101;BME280;4093;53.470;9.832;2023-03-15T10:55:05;101384.88;;;8.78;67.89
8101;BME280;4093;53.470;9.832;2023-03-15T10:57:36;101372.69;;;8.06;68.24
8101;BME280;4093;53.470;9.832;2023-03-15T11:00:20;101380.34;;;7.85;69.70
8101;BME280;4093;53.470;9.832;2023-03-15T11:02:51;101382.94;;;7.96;68.97
8101;BME280;4093;53.470;9.832;2023-03-15T11:05:20;101353.00;;;8.33;66.14
8101;BME280;4093;53.470;9.832;2023-03-15T11:07:54;101396.03;;;8.74;67.53
8101;BME280;4093;53.470;9.832;2023-03-15T11:10:25;101391.69;;;8.42;67.91
8101;BME280;4093;53.470;9.832;2023-03-15T11:13:12;101393.31;;;8.09;70.62
8101;BME280;4093;53.470;9.832;2023-03-15T11:15:48;101347.03;;;8.83;67.12
8101;BME280;4093;53.470;9.832;2023-03-15T11:18:25;101400.28;;;8.52;68.20
8101;BME280;4093;53.470;9.832;2023-03-15T11:20:55;101401.19;;;8.95;66.79
8101;BME280;4093;53.470;9.832;2023-03-15T11:23:25;101406.34;;;8.92;66.58
8101;BME280;4093;53.470;9.832;2023-03-15T11:25:55;101398.41;;;9.95;66.03
8101;BME280;4093;53.470;9.832;2023-03-15T11:28:27;101407.97;;;9.61;63.56
8101;BME280;4093;53.470;9.832;2023-03-15T11:31:01;101408.66;;;10.09;63.07
8101;BME280;4093;53.470;9.832;2023-03-15T11:33:37;101398.31;;;10.12;62.13
8101;BME280;4093;53.470;9.832;2023-03-15T11:36:12;101380.16;;;10.27;61.90
8101;BME280;4093;53.470;9.832;2023-03-15T11:38:42;101401.69;;;10.28;62.25
8101;BME280;4093;53.470;9.832;2023-03-15T11:41:18;101395.97;;;9.54;64.09
8101;BME280;4093;53.470;9.832;2023-03-15T11:43:56;101393.38;;;9.57;62.88
8101;BME280;4093;53.470;9.832;2023-03-15T11:46:31;101390.81;;;9.41;63.91
8101;BME280;4093;53.470;9.832;2023-03-15T11:49:04;101390.78;;;9.66;63.54
8101;BME280;4093;53.470;9.832;2023-03-15T11:51:38;101398.47;;;9.70;62.79
8101;BME280;4093;53.470;9.832;2023-03-15T11:54:11;101411.44;;;9.54;63.16
8101;BME280;4093;53.470;9.832;2023-03-15T11:56:51;101374.50;;;9.38;63.55
8101;BME280;4093;53.470;9.832;2023-03-15T11:59:24;101408.91;;;9.32;63.38
8101;BME280;4093;53.470;9.832;2023-03-15T12:02:34;101424.41;;;9.08;65.19
8101;BME280;4093;53.470;9.832;2023-03-15T12:05:40;101411.44;;;9.66;63.37
8101;BME280;4093;53.470;9.832;2023-03-15T12:08:20;101426.75;;;10.06;62.54
8101;BME280;4093;53.470;9.832;2023-03-15T12:10:50;101420.91;;;9.59;63.45
8101;BME280;4093;53.470;9.832;2023-03-15T12:13:26;101431.28;;;9.06;62.16
8101;BME280;4093;53.470;9.832;2023-03-15T12:15:59;101442.47;;;9.01;60.89
8101;BME280;4093;53.470;9.832;2023-03-15T12:18:32;101424.38;;;8.74;62.19
8101;BME280;4093;53.470;9.832;2023-03-15T12:21:20;101465.50;;;8.32;65.12
8101;BME280;4093;53.470;9.832;2023-03-15T12:23:59;101493.63;;;7.88;69.86
8101;BME280;4093;53.470;9.832;2023-03-15T12:26:39;101496.50;;;7.12;73.72
8101;BME280;4093;53.470;9.832;2023-03-15T12:29:20;101504.50;;;6.57;76.85
8101;BME280;4093;53.470;9.832;2023-03-15T12:31:53;101513.59;;;5.68;80.18
8101;BME280;4093;53.470;9.832;2023-03-15T12:34:29;101531.09;;;5.94;82.47
8101;BME280;4093;53.470;9.832;2023-03-15T12:37:06;101517.53;;;6.02;80.63
8101;BME280;4093;53.470;9.832;2023-03-15T12:39:39;101524.78;;;6.34;79.87
8101;BME280;4093;53.470;9.832;2023-03-15T12:45:44;101505.47;;;7.64;74.68
8101;BME280;4093;53.470;9.832;2023-03-15T12:48:23;101504.09;;;8.16;74.28
8101;BME280;4093;53.470;9.832;2023-03-15T12:51:00;101494.03;;;9.01;72.56
8101;BME280;4093;53.470;9.832;2023-03-15T12:53:50;101494.94;;;9.33;69.84
8101;BME280;4093;53.470;9.832;2023-03-15T12:56:41;101493.19;;;9.65;70.03
8101;BME280;4093;53.470;9.832;2023-03-15T12:59:21;101475.13;;;9.39;70.79
8101;BME280;4093;53.470;9.832;2023-03-15T13:01:51;101477.72;;;9.50;70.49
8101;BME280;4093;53.470;9.832;2023-03-15T13:04:22;101473.41;;;9.38;69.27
8101;BME280;4093;53.470;9.832;2023-03-15T13:07:22;101185.44;;;7.30;67.74
8101;BME280;4093;53.470;9.832;2023-03-15T13:10:11;101470.84;;;9.20;68.43
8101;BME280;4093;53.470;9.832;2023-03-15T13:12:50;101474.25;;;9.63;66.08
8101;BME280;4093;53.470;9.832;2023-03-15T13:15:22;101463.84;;;9.86;64.79
8101;BME280;4093;53.470;9.832;2023-03-15T13:17:57;101396.84;;;9.39;64.02
8101;BME280;4093;53.470;9.832;2023-03-15T13:21:01;101449.22;;;9.88;62.93
8101;BME280;4093;53.470;9.832;2023-03-15T13:23:36;101456.97;;;9.84;63.39
8101;BME280;4093;53.470;9.832;2023-03-15T13:26:19;101455.25;;;9.93;63.14
8101;BME280;4093;53.470;9.832;2023-03-15T13:28:56;101451.03;;;9.60;61.83
8101;BME280;4093;53.470;9.832;2023-03-15T13:31:27;101464.72;;;9.85;62.02
8101;BME280;4093;53.470;9.832;2023-03-15T13:34:09;101454.47;;;9.58;61.69
8101;BME280;4093;53.470;9.832;2023-03-15T13:36:43;101459.63;;;9.64;61.98
8101;BME280;4093;53.470;9.832;2023-03-15T13:39:33;101458.66;;;10.00;58.80
8101;BME280;4093;53.470;9.832;2023-03-15T13:42:04;101449.91;;;10.39;58.42
8101;BME280;4093;53.470;9.832;2023-03-15T13:44:33;101446.53;;;10.14;58.50
8101;BME280;4093;53.470;9.832;2023-03-15T13:47:01;101453.66;;;9.34;59.59
8101;BME280;4093;53.470;9.832;2023-03-15T13:49:32;101442.47;;;9.26;58.81